sensor_id;sensor_type;location;lat;lon;timestamp;P1;durP1;ratioP1;P2;durP2;ratioP2
7045;SDS011;3564;53.326;10.356;2023-11-19T00:00:08;3.97;;;3.50;;
7045;SDS011;3564;53.326;10.356;2023-11-19T00:02:37;3.90;;;3.30;;
7045;SDS011;3564;53.326;10.356;2023-11-19T00:05:07;4.20;;;3.73;;
7045;SDS011;3564;53.326;10.356;2023-11-19T00:07:36;5.00;;;3.60;;
7045;SDS011;3564;53.326;10.356;2023-11-19T00:10:07;4.33;;;3.23;;
7045;SDS011;3564;53.326;10.356;2023-11-19T00:12:41;4.30;;;3.37;;
7045;SDS011;3564;53.326;10.356;2023-11-19T00:15:07;3.07;;;2.77;;
7045;SDS011;3564;53.326;10.356;2023-11-19T00:17:39;5.13;;;2.90;;
7045;SDS011;3564;53.326;10.356;2023-11-19T00:20:07;3.93;;;2.67;;
7045;SDS011;3564;53.326;10.356;2023-11-19T00:22:33;3.37;;;2.57;;
7045;SDS011;3564;53.326;10.356;2023-11-19T00:24:59;2.50;;;2.30;;
7045;SDS011;3564;53.326;10.356;2023-11-19T00:27:25;2.57;;;2.37;;
7045;SDS011;3564;53.326;10.356;2023-11-19T00:29:51;3.23;;;2.40;;
7045;SDS011;3564;53.326;10.356;2023-11-19T00:32:16;2.70;;;2.23;;
7045;SDS011;3564;53.326;10.356;2023-11-19T00:34:45;2.80;;;2.50;;
7045;SDS011;3564;53.326;10.356;2023-11-19T00:37:12;2.97;;;2.67;;
7045;SDS011;3564;53.326;10.356;2023-11-19T00:39:39;2.47;;;2.27;;
7045;SDS011;3564;53.326;10.356;2023-11-19T00:42:04;3.27;;;2.77;;
7045;SDS011;3564;53.326;10.356;2023-11-19T00:44:30;2.67;;;2.47;;
7045;SDS011;3564;53.326;10.356;2023-11-19T00:46:56;3.17;;;2.00;;
7045;SDS011;3564;53.326;10.356;2023-11-19T00:49:21;2.40;;;2.10;;
7045;SDS011;3564;53.326;10.356;2023-11-19T00:51:47;2.27;;;2.07;;
7045;SDS011;3564;53.326;10.356;2023-11-19T00:54:14;3.40;;;1.90;;
7045;SDS011;3564;53.326;10.356;2023-11-19T00:56:39;2.50;;;2.00;;
7045;SDS011;3564;53.326;10.356;2023-11-19T00:59:05;2.03;;;1.70;;
7045;SDS011;3564;53.326;10.356;2023-11-19T01:01:30;3.17;;;2.27;;
7045;SDS011;3564;53.326;10.356;2023-11-19T01:03:56;2.30;;;2.03;;
7045;SDS011;3564;53.326;10.356;2023-11-19T01:06:29;2.53;;;2.00;;
7045;SDS011;3564;53.326;10.356;2023-11-19T01:08:55;2.43;;;2.23;;
7045;SDS011;3564;53.326;10.356;2023-11-19T01:11:24;2.07;;;1.83;;
7045;SDS011;3564;53.326;10.356;2023-11-19T01:13:50;2.30;;;2.10;;
7045;SDS011;3564;53.326;10.356;2023-11-19T01:16:16;2.37;;;2.17;;
7045;SDS011;3564;53.326;10.356;2023-11-19T01:18:43;2.03;;;1.83;;
7045;SDS011;3564;53.326;10.356;2023-11-19T01:21:09;2.20;;;2.00;;
7045;SDS011;3564;53.326;10.356;2023-11-19T01:23:35;2.43;;;2.03;;
7045;SDS011;3564;53.326;10.356;2023-11-19T01:26:00;2.10;;;1.90;;
7045;SDS011;3564;53.326;10.356;2023-11-19T01:28:26;3.77;;;2.03;;
7045;SDS011;3564;53.326;10.356;2023-11-19T01:30:51;2.23;;;2.03;;
7045;SDS011;3564;53.326;10.356;2023-11-19T01:33:17;2.07;;;1.87;;
7045;SDS011;3564;53.326;10.356;2023-11-19T01:35:43;2.03;;;1.83;;
7045;SDS011;3564;53.326;10.356;2023-11-19T01:38:09;2.10;;;1.90;;
7045;SDS011;3564;53.326;10.356;2023-11-19T01:40:35;2.87;;;1.80;;
7045;SDS011;3564;53.326;10.356;2023-11-19T01:43:01;1.60;;;1.50;;
7045;SDS011;3564;53.326;10.356;2023-11-19T01:45:29;1.93;;;1.80;;
7045;SDS011;3564;53.326;10.356;2023-11-19T01:47:57;1.77;;;1.67;;
7045;SDS011;3564;53.326;10.356;2023-11-19T01:50:23;1.90;;;1.70;;
7045;SDS011;3564;53.326;10.356;2023-11-19T01:52:52;2.10;;;1.77;;
7045;SDS011;3564;53.326;10.356;2023-11-19T01:55:18;1.93;;;1.73;;
7045;SDS011;3564;53.326;10.356;2023-11-19T01:57:48;3.33;;;1.87;;
7045;SDS011;3564;53.326;10.356;2023-11-19T02:00:14;1.97;;;1.67;;
7045;SDS011;3564;53.326;10.356;2023-11-19T02:02:41;2.30;;;1.90;;
7045;SDS011;3564;53.326;10.356;2023-11-19T02:05:08;1.87;;;1.70;;
7045;SDS011;3564;53.326;10.356;2023-11-19T02:07:35;3.07;;;1.73;;
7045;SDS011;3564;53.326;10.356;2023-11-19T02:10:01;1.80;;;1.70;;
7045;SDS011;3564;53.326;10.356;2023-11-19T02:12:31;1.90;;;1.70;;
7045;SDS011;3564;53.326;10.356;2023-11-19T02:15:01;2.23;;;1.70;;
7045;SDS011;3564;53.326;10.356;2023-11-19T02:17:30;2.97;;;1.80;;
7045;SDS011;3564;53.326;10.356;2023-11-19T02:19:56;1.90;;;1.70;;
7045;SDS011;3564;53.326;10.356;2023-11-19T02:22:23;2.20;;;2.00;;
7045;SDS011;3564;53.326;10.356;2023-11-19T02:24:51;3.27;;;2.00;;
7045;SDS011;3564;53.326;10.356;2023-11-19T02:27:26;2.10;;;1.80;;
7045;SDS011;3564;53.326;10.356;2023-11-19T02:30:12;2.03;;;1.80;;
7045;SDS011;3564;53.326;10.356;2023-11-19T02:32:41;2.30;;;2.00;;
7045;SDS011;3564;53.326;10.356;2023-11-19T02:35:07;2.87;;;1.90;;
7045;SDS011;3564;53.326;10.356;2023-11-19T02:37:37;1.87;;;1.77;;
7045;SDS011;3564;53.326;10.356;2023-11-19T02:40:04;2.00;;;1.80;;
7045;SDS011;3564;53.326;10.356;2023-11-19T02:42:33;3.67;;;1.87;;
7045;SDS011;3564;53.326;10.356;2023-11-19T02:44:59;1.70;;;1.60;;
7045;SDS011;3564;53.326;10.356;2023-11-19T02:47:24;1.93;;;1.73;;
7045;SDS011;3564;53.326;10.356;2023-11-19T02:49:51;2.57;;;2.37;;
7045;SDS011;3564;53.326;10.356;2023-11-19T02:52:18;1.90;;;1.73;;
7045;SDS011;3564;53.326;10.356;2023-11-19T02:54:44;2.07;;;1.80;;
7045;SDS011;3564;53.326;10.356;2023-11-19T02:57:10;2.43;;;1.97;;
7045;SDS011;3564;53.326;10.356;2023-11-19T02:59:38;2.00;;;1.80;;
7045;SDS011;3564;53.326;10.356;2023-11-19T03:02:06;1.70;;;1.60;;
7045;SDS011;3564;53.326;10.356;2023-11-19T03:04:37;2.20;;;2.00;;
7045;SDS011;3564;53.326;10.356;2023-11-19T03:07:06;1.60;;;1.50;;
7045;SDS011;3564;53.326;10.356;2023-11-19T03:09:32;2.00;;;1.87;;
7045;SDS011;3564;53.326;10.356;2023-11-19T03:11:59;2.10;;;1.90;;
7045;SDS011;3564;53.326;10.356;2023-11-19T03:14:24;2.70;;;1.77;;
7045;SDS011;3564;53.326;10.356;2023-11-19T03:16:50;1.60;;;1.50;;
7045;SDS011;3564;53.326;10.356;2023-11-19T03:19:16;2.40;;;1.80;;
7045;SDS011;3564;53.326;10.356;2023-11-19T03:21:42;1.80;;;1.70;;
7045;SDS011;3564;53.326;10.356;2023-11-19T03:24:07;2.30;;;2.00;;
7045;SDS011;3564;53.326;10.356;2023-11-19T03:26:33;1.93;;;1.80;;
7045;SDS011;3564;53.326;10.356;2023-11-19T03:28:59;1.57;;;1.47;;
7045;SDS011;3564;53.326;10.356;2023-11-19T03:31:25;1.63;;;1.50;;
7045;SDS011;3564;53.326;10.356;2023-11-19T03:33:51;1.67;;;1.50;;
7045;SDS011;3564;53.326;10.356;2023-11-19T03:36:16;1.40;;;1.30;;
7045;SDS011;3564;53.326;10.356;2023-11-19T03:38:42;1.50;;;1.40;;
7045;SDS011;3564;53.326;10.356;2023-11-19T03:41:11;1.40;;;1.30;;
7045;SDS011;3564;53.326;10.356;2023-11-19T03:43:37;2.20;;;1.57;;
7045;SDS011;3564;53.326;10.356;2023-11-19T03:46:04;1.47;;;1.37;;
7045;SDS011;3564;53.326;10.356;2023-11-19T03:48:30;2.37;;;1.50;;
7045;SDS011;3564;53.326;10.356;2023-11-19T03:50:56;1.30;;;1.20;;
7045;SDS011;3564;53.326;10.356;2023-11-19T03:53:22;1.30;;;1.20;;
7045;SDS011;3564;53.326;10.356;2023-11-19T03:55:50;1.30;;;1.20;;
7045;SDS011;3564;53.326;10.356;2023-11-19T03:58:17;1.00;;;1.00;;
7045;SDS011;3564;53.326;10.356;2023-11-19T04:00:42;1.10;;;1.03;;
7045;SDS011;3564;53.326;10.356;2023-11-19T04:03:08;1.20;;;1.10;;
7045;SDS011;3564;53.326;10.356;2023-11-19T04:05:33;1.00;;;1.00;;
7045;SDS011;3564;53.326;10.356;2023-11-19T04:07:59;1.93;;;1.20;;
7045;SDS011;3564;53.326;10.356;2023-11-19T04:10:25;1.00;;;1.00;;
7045;SDS011;3564;53.326;10.356;2023-11-19T04:12:52;1.10;;;1.00;;
7045;SDS011;3564;53.326;10.356;2023-11-19T04:15:18;1.60;;;1.20;;
7045;SDS011;3564;53.326;10.356;2023-11-19T04:17:43;1.20;;;1.10;;
7045;SDS011;3564;53.326;10.356;2023-11-19T04:20:09;0.80;;;0.80;;
7045;SDS011;3564;53.326;10.356;2023-11-19T04:22:39;1.47;;;1.07;;
7045;SDS011;3564;53.326;10.356;2023-11-19T04:25:04;2.50;;;1.13;;
7045;SDS011;3564;53.326;10.356;2023-11-19T04:27:30;1.73;;;1.10;;
7045;SDS011;3564;53.326;10.356;2023-11-19T04:29:56;1.00;;;1.00;;
7045;SDS011;3564;53.326;10.356;2023-11-19T04:32:21;1.33;;;1.10;;
7045;SDS011;3564;53.326;10.356;2023-11-19T04:34:47;1.23;;;1.17;;
7045;SDS011;3564;53.326;10.356;2023-11-19T04:37:12;1.77;;;1.20;;
7045;SDS011;3564;53.326;10.356;2023-11-19T04:39:38;1.60;;;1.50;;
7045;SDS011;3564;53.326;10.356;2023-11-19T04:42:04;1.10;;;1.10;;
7045;SDS011;3564;53.326;10.356;2023-11-19T04:44:31;1.43;;;1.33;;
7045;SDS011;3564;53.326;10.356;2023-11-19T04:46:57;1.97;;;1.30;;
7045;SDS011;3564;53.326;10.356;2023-11-19T04:49:23;1.30;;;1.20;;
7045;SDS011;3564;53.326;10.356;2023-11-19T04:51:51;2.30;;;1.73;;
7045;SDS011;3564;53.326;10.356;2023-11-19T04:54:17;1.57;;;1.47;;
7045;SDS011;3564;53.326;10.356;2023-11-19T04:56:47;2.47;;;1.57;;
7045;SDS011;3564;53.326;10.356;2023-11-19T04:59:13;2.33;;;2.13;;
7045;SDS011;3564;53.326;10.356;2023-11-19T05:01:38;2.20;;;2.00;;
7045;SDS011;3564;53.326;10.356;2023-11-19T05:04:04;2.43;;;2.23;;
7045;SDS011;3564;53.326;10.356;2023-11-19T05:06:30;2.97;;;2.73;;
7045;SDS011;3564;53.326;10.356;2023-11-19T05:08:57;3.50;;;3.20;;
7045;SDS011;3564;53.326;10.356;2023-11-19T05:11:29;5.10;;;3.70;;
7045;SDS011;3564;53.326;10.356;2023-11-19T05:13:55;4.80;;;3.37;;
7045;SDS011;3564;53.326;10.356;2023-11-19T05:16:21;6.00;;;3.47;;
7045;SDS011;3564;53.326;10.356;2023-11-19T05:18:46;5.50;;;4.37;;
7045;SDS011;3564;53.326;10.356;2023-11-19T05:21:12;4.63;;;3.73;;
7045;SDS011;3564;53.326;10.356;2023-11-19T05:23:38;5.60;;;4.30;;
7045;SDS011;3564;53.326;10.356;2023-11-19T05:26:04;6.33;;;4.20;;
7045;SDS011;3564;53.326;10.356;2023-11-19T05:28:30;6.57;;;4.50;;
7045;SDS011;3564;53.326;10.356;2023-11-19T05:30:55;6.43;;;4.53;;
7045;SDS011;3564;53.326;10.356;2023-11-19T05:33:21;6.03;;;5.03;;
7045;SDS011;3564;53.326;10.356;2023-11-19T05:35:47;7.67;;;5.00;;
7045;SDS011;3564;53.326;10.356;2023-11-19T05:38:12;8.60;;;5.33;;
7045;SDS011;3564;53.326;10.356;2023-11-19T05:40:38;8.80;;;5.53;;
7045;SDS011;3564;53.326;10.356;2023-11-19T05:43:04;8.07;;;5.83;;
7045;SDS011;3564;53.326;10.356;2023-11-19T05:45:30;11.40;;;6.13;;
7045;SDS011;3564;53.326;10.356;2023-11-19T05:47:57;10.27;;;7.00;;
7045;SDS011;3564;53.326;10.356;2023-11-19T05:50:22;9.97;;;6.50;;
7045;SDS011;3564;53.326;10.356;2023-11-19T05:52:48;12.07;;;6.53;;
7045;SDS011;3564;53.326;10.356;2023-11-19T05:55:14;8.97;;;6.77;;
7045;SDS011;3564;53.326;10.356;2023-11-19T05:57:40;9.07;;;6.50;;
7045;SDS011;3564;53.326;10.356;2023-11-19T06:00:06;9.30;;;6.43;;
7045;SDS011;3564;53.326;10.356;2023-11-19T06:02:38;10.10;;;6.43;;
7045;SDS011;3564;53.326;10.356;2023-11-19T06:05:04;7.93;;;6.70;;
7045;SDS011;3564;53.326;10.356;2023-11-19T06:07:31;10.70;;;6.40;;
7045;SDS011;3564;53.326;10.356;2023-11-19T06:10:00;11.37;;;7.10;;
7045;SDS011;3564;53.326;10.356;2023-11-19T06:12:25;10.60;;;6.63;;
7045;SDS011;3564;53.326;10.356;2023-11-19T06:14:52;8.70;;;6.90;;
7045;SDS011;3564;53.326;10.356;2023-11-19T06:17:21;11.80;;;7.60;;
7045;SDS011;3564;53.326;10.356;2023-11-19T06:19:46;8.90;;;6.63;;
7045;SDS011;3564;53.326;10.356;2023-11-19T06:22:12;9.93;;;7.27;;
7045;SDS011;3564;53.326;10.356;2023-11-19T06:24:37;10.50;;;6.50;;
7045;SDS011;3564;53.326;10.356;2023-11-19T06:27:03;9.30;;;6.77;;
7045;SDS011;3564;53.326;10.356;2023-11-19T06:29:29;11.23;;;7.00;;
7045;SDS011;3564;53.326;10.356;2023-11-19T06:31:55;11.57;;;7.80;;
7045;SDS011;3564;53.326;10.356;2023-11-19T06:34:20;14.77;;;7.53;;
7045;SDS011;3564;53.326;10.356;2023-11-19T06:36:46;12.60;;;7.73;;
7045;SDS011;3564;53.326;10.356;2023-11-19T06:39:11;13.90;;;6.70;;
7045;SDS011;3564;53.326;10.356;2023-11-19T06:41:37;16.50;;;6.63;;
7045;SDS011;3564;53.326;10.356;2023-11-19T06:44:06;14.97;;;6.77;;
7045;SDS011;3564;53.326;10.356;2023-11-19T06:46:35;11.93;;;6.20;;
7045;SDS011;3564;53.326;10.356;2023-11-19T06:49:00;16.80;;;7.17;;
7045;SDS011;3564;53.326;10.356;2023-11-19T06:51:26;13.43;;;6.73;;
7045;SDS011;3564;53.326;10.356;2023-11-19T06:53:52;18.50;;;6.93;;
7045;SDS011;3564;53.326;10.356;2023-11-19T06:56:21;19.10;;;6.80;;
7045;SDS011;3564;53.326;10.356;2023-11-19T06:58:51;19.87;;;7.20;;
7045;SDS011;3564;53.326;10.356;2023-11-19T07:01:17;14.87;;;5.90;;
7045;SDS011;3564;53.326;10.356;2023-11-19T07:03:46;16.57;;;6.57;;
7045;SDS011;3564;53.326;10.356;2023-11-19T07:06:12;17.37;;;6.03;;
7045;SDS011;3564;53.326;10.356;2023-11-19T07:08:39;15.77;;;6.57;;
7045;SDS011;3564;53.326;10.356;2023-11-19T07:11:06;20.00;;;7.27;;
7045;SDS011;3564;53.326;10.356;2023-11-19T07:13:32;18.67;;;7.33;;
7045;SDS011;3564;53.326;10.356;2023-11-19T07:15:57;18.00;;;6.93;;
7045;SDS011;3564;53.326;10.356;2023-11-19T07:18:24;17.53;;;6.67;;
7045;SDS011;3564;53.326;10.356;2023-11-19T07:20:50;18.83;;;6.43;;
7045;SDS011;3564;53.326;10.356;2023-11-19T07:23:16;20.57;;;7.30;;
7045;SDS011;3564;53.326;10.356;2023-11-19T07:25:44;21.07;;;6.73;;
7045;SDS011;3564;53.326;10.356;2023-11-19T07:28:12;21.70;;;6.93;;
7045;SDS011;3564;53.326;10.356;2023-11-19T07:30:38;18.67;;;6.00;;
7045;SDS011;3564;53.326;10.356;2023-11-19T07:33:04;22.63;;;6.83;;
7045;SDS011;3564;53.326;10.356;2023-11-19T07:35:30;14.70;;;5.80;;
7045;SDS011;3564;53.326;10.356;2023-11-19T07:37:56;21.53;;;6.10;;
7045;SDS011;3564;53.326;10.356;2023-11-19T07:40:26;17.50;;;6.63;;
7045;SDS011;3564;53.326;10.356;2023-11-19T07:42:52;18.30;;;6.07;;
7045;SDS011;3564;53.326;10.356;2023-11-19T07:45:17;24.77;;;6.97;;
7045;SDS011;3564;53.326;10.356;2023-11-19T07:47:43;16.47;;;6.33;;
7045;SDS011;3564;53.326;10.356;2023-11-19T07:50:10;17.73;;;6.47;;
7045;SDS011;3564;53.326;10.356;2023-11-19T07:52:39;25.87;;;6.33;;
7045;SDS011;3564;53.326;10.356;2023-11-19T07:55:04;18.77;;;6.03;;
7045;SDS011;3564;53.326;10.356;2023-11-19T07:57:30;20.80;;;6.17;;
7045;SDS011;3564;53.326;10.356;2023-11-19T07:59:56;18.33;;;5.97;;
7045;SDS011;3564;53.326;10.356;2023-11-19T08:02:22;19.30;;;5.50;;
7045;SDS011;3564;53.326;10.356;2023-11-19T08:04:48;18.00;;;5.83;;
7045;SDS011;3564;53.326;10.356;2023-11-19T08:07:17;20.67;;;5.67;;
7045;SDS011;3564;53.326;10.356;2023-11-19T08:09:44;19.70;;;5.70;;
7045;SDS011;3564;53.326;10.356;2023-11-19T08:12:09;18.53;;;6.67;;
7045;SDS011;3564;53.326;10.356;2023-11-19T08:14:35;14.53;;;4.50;;
7045;SDS011;3564;53.326;10.356;2023-11-19T08:17:02;17.33;;;4.40;;
7045;SDS011;3564;53.326;10.356;2023-11-19T08:19:28;18.47;;;4.40;;
7045;SDS011;3564;53.326;10.356;2023-11-19T08:21:55;18.27;;;5.10;;
7045;SDS011;3564;53.326;10.356;2023-11-19T08:24:20;18.07;;;4.70;;
7045;SDS011;3564;53.326;10.356;2023-11-19T08:26:46;23.53;;;6.73;;
7045;SDS011;3564;53.326;10.356;2023-11-19T08:29:11;24.00;;;5.37;;
7045;SDS011;3564;53.326;10.356;2023-11-19T08:31:38;17.77;;;4.97;;
7045;SDS011;3564;53.326;10.356;2023-11-19T08:34:04;17.37;;;5.27;;
7045;SDS011;3564;53.326;10.356;2023-11-19T08:36:33;14.47;;;4.60;;
7045;SDS011;3564;53.326;10.356;2023-11-19T08:38:59;13.80;;;4.57;;
7045;SDS011;3564;53.326;10.356;2023-11-19T08:41:25;22.10;;;4.60;;
7045;SDS011;3564;53.326;10.356;2023-11-19T08:43:50;19.37;;;4.50;;
7045;SDS011;3564;53.326;10.356;2023-11-19T08:46:16;15.93;;;4.97;;
7045;SDS011;3564;53.326;10.356;2023-11-19T08:48:42;20.37;;;5.57;;
7045;SDS011;3564;53.326;10.356;2023-11-19T08:51:08;22.83;;;5.63;;
7045;SDS011;3564;53.326;10.356;2023-11-19T08:53:33;15.43;;;5.13;;
7045;SDS011;3564;53.326;10.356;2023-11-19T08:55:59;15.80;;;5.33;;
7045;SDS011;3564;53.326;10.356;2023-11-19T08:58:25;29.80;;;6.40;;
7045;SDS011;3564;53.326;10.356;2023-11-19T09:00:51;16.17;;;4.87;;
7045;SDS011;3564;53.326;10.356;2023-11-19T09:03:17;21.87;;;5.20;;
7045;SDS011;3564;53.326;10.356;2023-11-19T09:05:42;21.93;;;5.33;;
7045;SDS011;3564;53.326;10.356;2023-11-19T09:08:08;17.33;;;4.70;;
7045;SDS011;3564;53.326;10.356;2023-11-19T09:10:34;24.03;;;5.10;;
7045;SDS011;3564;53.326;10.356;2023-11-19T09:12:59;20.17;;;5.07;;
7045;SDS011;3564;53.326;10.356;2023-11-19T09:15:25;23.03;;;5.10;;
7045;SDS011;3564;53.326;10.356;2023-11-19T09:17:50;26.87;;;6.30;;
7045;SDS011;3564;53.326;10.356;2023-11-19T09:20:16;18.10;;;4.73;;
7045;SDS011;3564;53.326;10.356;2023-11-19T09:22:44;22.17;;;5.17;;
7045;SDS011;3564;53.326;10.356;2023-11-19T09:25:09;23.23;;;5.10;;
7045;SDS011;3564;53.326;10.356;2023-11-19T09:27:35;21.23;;;5.60;;
7045;SDS011;3564;53.326;10.356;2023-11-19T09:30:01;17.87;;;4.60;;
7045;SDS011;3564;53.326;10.356;2023-11-19T09:32:26;14.53;;;4.60;;
7045;SDS011;3564;53.326;10.356;2023-11-19T09:34:52;17.60;;;4.77;;
7045;SDS011;3564;53.326;10.356;2023-11-19T09:37:17;22.27;;;5.47;;
7045;SDS011;3564;53.326;10.356;2023-11-19T09:39:43;19.87;;;4.90;;
7045;SDS011;3564;53.326;10.356;2023-11-19T09:42:09;14.67;;;4.80;;
7045;SDS011;3564;53.326;10.356;2023-11-19T09:44:35;15.07;;;4.83;;
7045;SDS011;3564;53.326;10.356;2023-11-19T09:47:05;17.10;;;5.30;;
7045;SDS011;3564;53.326;10.356;2023-11-19T09:49:32;22.00;;;5.37;;
7045;SDS011;3564;53.326;10.356;2023-11-19T09:51:59;23.20;;;4.90;;
7045;SDS011;3564;53.326;10.356;2023-11-19T09:54:25;19.97;;;4.83;;
7045;SDS011;3564;53.326;10.356;2023-11-19T09:56:51;23.33;;;5.77;;
7045;SDS011;3564;53.326;10.356;2023-11-19T09:59:17;22.60;;;5.63;;
7045;SDS011;3564;53.326;10.356;2023-11-19T10:01:43;19.27;;;5.13;;
7045;SDS011;3564;53.326;10.356;2023-11-19T10:04:10;13.40;;;4.30;;
7045;SDS011;3564;53.326;10.356;2023-11-19T10:06:41;17.67;;;4.70;;
7045;SDS011;3564;53.326;10.356;2023-11-19T10:09:07;23.80;;;5.23;;
7045;SDS011;3564;53.326;10.356;2023-11-19T10:11:32;19.63;;;5.27;;
7045;SDS011;3564;53.326;10.356;2023-11-19T10:13:59;27.63;;;5.40;;
7045;SDS011;3564;53.326;10.356;2023-11-19T10:16:28;19.70;;;5.07;;
7045;SDS011;3564;53.326;10.356;2023-11-19T10:18:57;22.27;;;5.10;;
7045;SDS011;3564;53.326;10.356;2023-11-19T10:21:23;21.50;;;6.07;;
7045;SDS011;3564;53.326;10.356;2023-11-19T10:23:53;18.90;;;4.63;;
7045;SDS011;3564;53.326;10.356;2023-11-19T10:26:22;19.40;;;5.10;;
7045;SDS011;3564;53.326;10.356;2023-11-19T10:28:48;20.40;;;4.77;;
7045;SDS011;3564;53.326;10.356;2023-11-19T10:31:15;23.83;;;5.60;;
7045;SDS011;3564;53.326;10.356;2023-11-19T10:33:42;20.30;;;5.47;;
7045;SDS011;3564;53.326;10.356;2023-11-19T10:36:13;18.27;;;4.90;;
7045;SDS011;3564;53.326;10.356;2023-11-19T10:38:39;20.60;;;4.83;;
7045;SDS011;3564;53.326;10.356;2023-11-19T10:41:05;21.67;;;5.40;;
7045;SDS011;3564;53.326;10.356;2023-11-19T10:43:31;24.23;;;5.33;;
7045;SDS011;3564;53.326;10.356;2023-11-19T10:46:09;20.73;;;4.53;;
7045;SDS011;3564;53.326;10.356;2023-11-19T10:48:38;22.27;;;5.50;;
7045;SDS011;3564;53.326;10.356;2023-11-19T10:51:05;18.63;;;5.00;;
7045;SDS011;3564;53.326;10.356;2023-11-19T10:53:36;22.83;;;5.80;;
7045;SDS011;3564;53.326;10.356;2023-11-19T10:56:06;24.50;;;5.50;;
7045;SDS011;3564;53.326;10.356;2023-11-19T10:58:42;21.47;;;4.47;;
7045;SDS011;3564;53.326;10.356;2023-11-19T11:01:16;18.70;;;5.17;;
7045;SDS011;3564;53.326;10.356;2023-11-19T11:03:45;18.10;;;5.07;;
7045;SDS011;3564;53.326;10.356;2023-11-19T11:06:12;21.23;;;5.53;;
7045;SDS011;3564;53.326;10.356;2023-11-19T11:08:38;17.90;;;5.23;;
7045;SDS011;3564;53.326;10.356;2023-11-19T11:11:05;22.47;;;4.83;;
7045;SDS011;3564;53.326;10.356;2023-11-19T11:13:33;19.60;;;4.90;;
7045;SDS011;3564;53.326;10.356;2023-11-19T11:15:59;21.00;;;4.77;;
7045;SDS011;3564;53.326;10.356;2023-11-19T11:18:25;19.93;;;4.90;;
7045;SDS011;3564;53.326;10.356;2023-11-19T11:37:15;20.03;;;5.30;;
7045;SDS011;3564;53.326;10.356;2023-11-19T11:39:49;25.03;;;5.40;;
7045;SDS011;3564;53.326;10.356;2023-11-19T11:50:16;18.87;;;6.13;;
7045;SDS011;3564;53.326;10.356;2023-11-19T11:56:08;22.73;;;5.87;;
7045;SDS011;3564;53.326;10.356;2023-11-19T11:58:21;19.40;;;5.10;;
7045;SDS011;3564;53.326;10.356;2023-11-19T12:00:51;21.80;;;4.93;;
7045;SDS011;3564;53.326;10.356;2023-11-19T12:03:19;21.33;;;4.53;;
7045;SDS011;3564;53.326;10.356;2023-11-19T12:05:49;20.60;;;4.93;;
7045;SDS011;3564;53.326;10.356;2023-11-19T12:08:16;17.17;;;4.30;;
7045;SDS011;3564;53.326;10.356;2023-11-19T12:10:51;16.00;;;4.67;;
7045;SDS011;3564;53.326;10.356;2023-11-19T12:13:19;20.10;;;5.27;;
7045;SDS011;3564;53.326;10.356;2023-11-19T12:18:23;14.60;;;4.17;;
7045;SDS011;3564;53.326;10.356;2023-11-19T12:20:52;19.67;;;5.67;;
7045;SDS011;3564;53.326;10.356;2023-11-19T12:23:18;14.20;;;4.57;;
7045;SDS011;3564;53.326;10.356;2023-11-19T12:25:44;19.67;;;4.70;;
7045;SDS011;3564;53.326;10.356;2023-11-19T12:28:16;14.63;;;4.27;;
7045;SDS011;3564;53.326;10.356;2023-11-19T12:30:42;18.47;;;4.23;;
7045;SDS011;3564;53.326;10.356;2023-11-19T12:33:11;16.37;;;4.97;;
7045;SDS011;3564;53.326;10.356;2023-11-19T12:35:41;15.33;;;4.50;;
7045;SDS011;3564;53.326;10.356;2023-11-19T12:38:21;18.53;;;5.33;;
7045;SDS011;3564;53.326;10.356;2023-11-19T12:41:04;17.53;;;4.60;;
7045;SDS011;3564;53.326;10.356;2023-11-19T12:43:31;16.07;;;4.77;;
7045;SDS011;3564;53.326;10.356;2023-11-19T12:45:59;16.83;;;6.90;;
7045;SDS011;3564;53.326;10.356;2023-11-19T12:48:25;24.57;;;6.40;;
7045;SDS011;3564;53.326;10.356;2023-11-19T12:50:54;15.33;;;4.73;;
7045;SDS011;3564;53.326;10.356;2023-11-19T12:53:24;13.23;;;4.13;;
7045;SDS011;3564;53.326;10.356;2023-11-19T12:55:52;19.67;;;5.83;;
7045;SDS011;3564;53.326;10.356;2023-11-19T12:58:31;12.47;;;4.87;;
7045;SDS011;3564;53.326;10.356;2023-11-19T13:01:01;20.73;;;5.20;;
7045;SDS011;3564;53.326;10.356;2023-11-19T13:03:41;16.47;;;5.43;;
7045;SDS011;3564;53.326;10.356;2023-11-19T13:06:07;16.97;;;4.73;;
7045;SDS011;3564;53.326;10.356;2023-11-19T13:08:37;12.00;;;3.50;;
7045;SDS011;3564;53.326;10.356;2023-11-19T13:11:04;20.57;;;6.60;;
7045;SDS011;3564;53.326;10.356;2023-11-19T13:13:31;11.83;;;4.27;;
7045;SDS011;3564;53.326;10.356;2023-11-19T13:16:03;17.07;;;4.20;;
7045;SDS011;3564;53.326;10.356;2023-11-19T13:18:30;17.50;;;4.80;;
7045;SDS011;3564;53.326;10.356;2023-11-19T13:20:56;21.13;;;6.13;;
7045;SDS011;3564;53.326;10.356;2023-11-19T13:23:24;14.60;;;4.53;;
7045;SDS011;3564;53.326;10.356;2023-11-19T13:25:50;16.57;;;4.27;;
7045;SDS011;3564;53.326;10.356;2023-11-19T13:28:16;20.43;;;4.70;;
7045;SDS011;3564;53.326;10.356;2023-11-19T13:30:41;20.40;;;4.97;;
7045;SDS011;3564;53.326;10.356;2023-11-19T13:33:07;18.50;;;6.00;;
7045;SDS011;3564;53.326;10.356;2023-11-19T13:35:32;14.40;;;4.67;;
7045;SDS011;3564;53.326;10.356;2023-11-19T13:37:58;16.30;;;4.67;;
7045;SDS011;3564;53.326;10.356;2023-11-19T13:40:23;15.60;;;4.20;;
7045;SDS011;3564;53.326;10.356;2023-11-19T13:42:50;17.83;;;4.50;;
7045;SDS011;3564;53.326;10.356;2023-11-19T13:45:15;19.93;;;5.07;;
7045;SDS011;3564;53.326;10.356;2023-11-19T13:47:43;16.97;;;4.13;;
7045;SDS011;3564;53.326;10.356;2023-11-19T13:50:11;14.30;;;4.70;;
7045;SDS011;3564;53.326;10.356;2023-11-19T13:52:38;18.90;;;4.57;;
7045;SDS011;3564;53.326;10.356;2023-11-19T13:55:07;23.27;;;5.90;;
7045;SDS011;3564;53.326;10.356;2023-11-19T13:57:43;20.47;;;4.97;;
7045;SDS011;3564;53.326;10.356;2023-11-19T14:00:09;19.47;;;5.27;;
7045;SDS011;3564;53.326;10.356;2023-11-19T14:02:41;19.13;;;5.33;;
7045;SDS011;3564;53.326;10.356;2023-11-19T14:05:08;16.23;;;4.90;;
7045;SDS011;3564;53.326;10.356;2023-11-19T14:07:34;21.40;;;5.53;;
7045;SDS011;3564;53.326;10.356;2023-11-19T14:09:59;15.33;;;4.40;;
7045;SDS011;3564;53.326;10.356;2023-11-19T14:12:25;15.60;;;4.30;;
7045;SDS011;3564;53.326;10.356;2023-11-19T14:14:51;14.97;;;4.67;;
7045;SDS011;3564;53.326;10.356;2023-11-19T14:17:16;17.87;;;5.37;;
7045;SDS011;3564;53.326;10.356;2023-11-19T14:19:43;20.50;;;4.73;;
7045;SDS011;3564;53.326;10.356;2023-11-19T14:22:09;20.93;;;5.03;;
7045;SDS011;3564;53.326;10.356;2023-11-19T14:24:35;15.27;;;4.90;;
7045;SDS011;3564;53.326;10.356;2023-11-19T14:27:01;15.60;;;4.13;;
7045;SDS011;3564;53.326;10.356;2023-11-19T14:29:27;19.93;;;5.53;;
7045;SDS011;3564;53.326;10.356;2023-11-19T14:31:56;13.93;;;4.67;;
7045;SDS011;3564;53.326;10.356;2023-11-19T14:34:22;18.83;;;4.77;;
7045;SDS011;3564;53.326;10.356;2023-11-19T14:36:47;14.50;;;3.93;;
7045;SDS011;3564;53.326;10.356;2023-11-19T14:39:14;15.43;;;4.53;;
7045;SDS011;3564;53.326;10.356;2023-11-19T14:41:40;18.07;;;5.00;;
7045;SDS011;3564;53.326;10.356;2023-11-19T14:44:05;18.83;;;4.57;;
7045;SDS011;3564;53.326;10.356;2023-11-19T14:46:31;19.37;;;4.70;;
7045;SDS011;3564;53.326;10.356;2023-11-19T14:48:57;17.90;;;4.47;;
7045;SDS011;3564;53.326;10.356;2023-11-19T14:51:23;15.60;;;3.83;;
7045;SDS011;3564;53.326;10.356;2023-11-19T14:53:49;18.20;;;5.17;;
7045;SDS011;3564;53.326;10.356;2023-11-19T14:56:14;13.53;;;3.50;;
7045;SDS011;3564;53.326;10.356;2023-11-19T14:58:41;18.43;;;3.97;;
7045;SDS011;3564;53.326;10.356;2023-11-19T15:01:07;16.23;;;3.87;;
7045;SDS011;3564;53.326;10.356;2023-11-19T15:03:37;13.37;;;4.27;;
7045;SDS011;3564;53.326;10.356;2023-11-19T15:06:02;12.63;;;3.80;;
7045;SDS011;3564;53.326;10.356;2023-11-19T15:08:28;13.10;;;4.27;;
7045;SDS011;3564;53.326;10.356;2023-11-19T15:10:55;16.07;;;3.63;;
7045;SDS011;3564;53.326;10.356;2023-11-19T15:13:22;13.03;;;3.73;;
7045;SDS011;3564;53.326;10.356;2023-11-19T15:15:48;12.17;;;3.60;;
7045;SDS011;3564;53.326;10.356;2023-11-19T15:18:14;11.43;;;3.30;;
7045;SDS011;3564;53.326;10.356;2023-11-19T15:20:39;11.90;;;3.97;;